Time;durP1;ratioP1;P1;durP2;ratioP2;P2;SDS_P1;SDS_P2;PMS_P1;PMS_P2;Temp;Humidity;BMP_temperature;BMP_pressure;BME280_temperature;BME280_humidity;BME280_pressure;Samples;Min_cycle;Max_cycle;Signal;HPM_P1;HPM_P2
2022/02/13 00:00:19;;;;;;;2.47;2.30;;;-3.40;99.90;-3.40;97939.00;;;;5040673;28;20455;-82
2022/02/13 00:02:48;;;;;;;2.60;2.40;;;-3.40;99.90;-3.50;97942.00;;;;5041113;28;20666;-82
2022/02/13 00:05:17;;;;;;;2.50;2.30;;;-3.40;99.90;-3.60;97926.00;;;;5041148;28;20482;-84
2022/02/13 00:07:46;;;;;;;2.47;2.27;;;-3.40;99.90;-3.60;97937.00;;;;5048773;28;20447;-82
2022/02/13 00:10:15;;;;;;;3.23;2.90;;;-3.40;99.90;-3.50;97932.00;;;;5054994;28;20956;-84
2022/02/13 00:12:44;;;;;;;4.07;2.00;;;-2.00;99.90;-3.70;97931.00;;;;5052572;28;20467;-83
2022/02/13 00:15:13;;;;;;;2.87;2.60;;;-3.40;99.90;-3.60;97925.00;;;;5059903;28;20562;-83
2022/02/13 00:17:43;;;;;;;2.90;2.40;;;-3.50;99.90;-3.60;97920.00;;;;5058971;28;20443;-82
2022/02/13 00:20:20;;;;;;;3.87;2.33;;;-3.40;99.90;-3.50;97917.00;;;;5051087;28;20440;-85
2022/02/13 00:22:49;;;;;;;4.87;2.93;;;-3.50;99.90;-3.60;97912.00;;;;5053531;28;21086;-84
2022/02/13 00:25:18;;;;;;;2.33;2.20;;;-3.50;99.90;-3.50;97917.00;;;;5046815;28;20510;-84
2022/02/13 00:27:47;;;;;;;2.10;1.90;;;-3.50;99.90;-3.80;97909.00;;;;5041335;28;21002;-84
2022/02/13 00:30:17;;;;;;;2.80;2.20;;;-3.50;99.90;-4.30;97906.00;;;;5047258;28;20440;-86
2022/02/13 00:32:48;;;;;;;2.20;2.00;;;-3.40;99.90;-4.20;97905.00;;;;5047065;28;20436;-86
2022/02/13 00:35:17;;;;;;;2.03;1.10;;;-3.70;99.90;-4.20;97909.00;;;;5045475;28;20479;-83
2022/02/13 00:37:46;;;;;;;2.17;2.00;;;-3.70;99.90;-4.10;97908.00;;;;5043620;28;20443;-87
2022/02/13 00:40:16;;;;;;;2.77;2.57;;;-3.70;99.90;-3.90;97904.00;;;;5044317;28;20449;-83
2022/02/13 00:42:45;;;;;;;2.73;2.20;;;-3.70;99.90;-3.70;97906.00;;;;5045307;28;20439;-86
2022/02/13 00:45:14;;;;;;;2.73;2.30;;;-3.70;99.90;-3.70;97896.00;;;;5046680;28;20480;-83
2022/02/13 00:47:43;;;;;;;2.40;2.17;;;-3.60;99.90;-3.70;97900.00;;;;5046617;28;20474;-87
2022/02/13 00:50:13;;;;;;;2.30;1.90;;;-3.00;99.90;-3.80;97891.00;;;;5046443;28;20451;-83
2022/02/13 00:52:42;;;;;;;8.77;2.10;;;-3.70;99.90;-3.60;97895.00;;;;5034864;28;20437;-83
2022/02/13 00:55:11;;;;;;;2.63;1.83;;;-3.60;99.90;-3.80;97892.00;;;;5048068;28;20998;-83
2022/02/13 00:57:40;;;;;;;2.33;2.13;;;-3.20;99.90;-4.30;97879.00;;;;5039712;28;20524;-85
2022/02/13 01:00:10;;;;;;;2.20;2.00;;;-3.70;99.90;-4.20;97880.00;;;;5044305;28;20512;-84
2022/02/13 01:02:39;;;;;;;5.50;2.07;;;-3.80;99.90;-4.60;97872.00;;;;5043270;28;20444;-84
2022/02/13 01:05:09;;;;;;;3.00;1.97;;;-3.80;99.90;-4.60;97878.00;;;;5047600;28;20483;-83
2022/02/13 01:07:39;;;;;;;1.97;1.73;;;-3.90;99.90;-4.60;97875.00;;;;5043718;28;20568;-87
2022/02/13 01:10:08;;;;;;;2.40;2.20;;;-4.00;99.90;-4.10;97884.00;;;;5043974;28;20438;-87
2022/02/13 01:12:37;;;;;;;3.57;2.13;;;-4.00;99.90;-4.20;97876.00;;;;5036595;28;20998;-86
2022/02/13 01:15:06;;;;;;;2.47;2.03;;;-4.00;99.90;-4.20;97870.00;;;;5048174;28;20501;-86
2022/02/13 01:17:36;;;;;;;2.20;1.97;;;-4.00;99.90;-4.10;97878.00;;;;5047830;28;21021;-87
2022/02/13 01:20:23;;;;;;;2.43;2.27;;;-4.00;99.90;-4.10;97866.00;;;;5042262;28;20798;-85
2022/02/13 01:22:53;;;;;;;2.60;2.40;;;-4.00;99.90;-4.40;97861.00;;;;5045103;28;20443;-84
2022/02/13 01:25:22;;;;;;;8.60;2.17;;;-4.10;99.90;-4.50;97860.00;;;;5050600;28;20486;-84
2022/02/13 01:27:51;;;;;;;1.60;1.50;;;-4.10;99.90;-4.90;97849.00;;;;5046802;28;20510;-85
2022/02/13 01:30:20;;;;;;;1.73;1.63;;;-4.20;99.90;-5.50;97844.00;;;;5043445;28;20447;-85
2022/02/13 01:32:49;;;;;;;3.27;2.20;;;-4.20;99.90;-5.00;97844.00;;;;5042665;28;20949;-85
2022/02/13 01:35:18;;;;;;;4.00;2.63;;;-4.40;99.90;-4.50;97847.00;;;;5049201;28;20459;-83
2022/02/13 01:37:47;;;;;;;2.53;2.33;;;-4.10;99.90;-4.50;97837.00;;;;5045861;28;20431;-84
2022/02/13 01:40:17;;;;;;;2.33;2.10;;;-4.30;99.90;-4.30;97849.00;;;;5048612;28;20514;-86
2022/02/13 01:42:46;;;;;;;3.50;2.13;;;-4.30;99.90;-4.20;97843.00;;;;5044062;28;20506;-86
2022/02/13 01:45:16;;;;;;;1.90;1.80;;;-3.30;99.90;-4.00;97845.00;;;;5043685;28;20911;-86
2022/02/13 01:47:44;;;;;;;2.53;2.17;;;-4.20;99.90;-4.10;97847.00;;;;5059921;28;20474;-81
2022/02/13 01:50:13;;;;;;;2.57;2.20;;;-4.20;99.90;-4.40;97833.00;;;;5049985;28;20505;-82
2022/02/13 01:52:43;;;;;;;2.83;2.37;;;-4.20;99.90;-4.30;97831.00;;;;5046319;28;20435;-86
2022/02/13 01:55:12;;;;;;;2.67;2.47;;;-4.20;99.90;-4.40;97833.00;;;;5047630;28;20987;-84
2022/02/13 01:57:42;;;;;;;3.00;2.70;;;-4.20;99.90;-4.30;97822.00;;;;5051063;28;20458;-84
2022/02/13 02:00:12;;;;;;;2.27;2.03;;;-4.30;99.90;-4.70;97815.00;;;;5059946;28;20441;-81
2022/02/13 02:02:41;;;;;;;3.57;2.17;;;-4.30;99.90;-4.60;97818.00;;;;5057243;28;20432;-81
2022/02/13 02:05:10;;;;;;;1.70;1.57;;;-3.10;99.90;-4.60;97821.00;;;;5052740;28;20536;-86
2022/02/13 02:07:39;;;;;;;2.73;2.53;;;-4.40;99.90;-5.00;97806.00;;;;5051024;28;20474;-83
2022/02/13 02:10:12;;;;;;;2.07;1.80;;;-2.40;99.90;-5.00;97809.00;;;;5045147;28;20443;-82
2022/02/13 02:12:42;;;;;;;2.33;2.13;;;-4.50;99.90;-4.80;97800.00;;;;5038142;28;20443;-84
2022/02/13 02:15:11;;;;;;;2.27;2.10;;;-4.50;99.90;-4.90;97800.00;;;;5037381;28;20451;-85
2022/02/13 02:17:40;;;;;;;5.30;2.67;;;-4.50;99.90;-4.70;97807.00;;;;5044583;28;20485;-85
2022/02/13 02:20:10;;;;;;;2.53;2.27;;;-4.20;99.90;-4.70;97793.00;;;;5046208;28;20439;-81
2022/02/13 02:22:46;;;;;;;3.00;2.77;;;-4.50;99.90;-4.60;97809.00;;;;5046580;28;20497;-85
2022/02/13 02:25:17;;;;;;;2.30;1.80;;;-4.50;99.90;-4.60;97792.00;;;;5037804;28;20470;-84
2022/02/13 02:27:46;;;;;;;3.40;2.40;;;-4.50;99.90;-5.00;97796.00;;;;5040988;28;20521;-84
2022/02/13 02:30:15;;;;;;;3.57;2.93;;;-3.20;99.90;-4.80;97786.00;;;;5044671;28;20475;-82
2022/02/13 02:32:44;;;;;;;2.83;2.50;;;-4.60;99.90;-5.00;97789.00;;;;5043579;28;20536;-85
2022/02/13 02:35:12;;;;;;;2.47;2.27;;;-4.40;99.90;-5.00;97789.00;;;;5048953;28;20443;-83
2022/02/13 02:37:41;;;;;;;3.07;2.53;;;-4.00;99.90;-4.70;97781.00;;;;5045679;28;20435;-85
2022/02/13 02:40:12;;;;;;;2.70;2.03;;;-4.00;99.90;-4.40;97786.00;;;;5044949;28;20486;-86
2022/02/13 02:42:43;;;;;;;3.37;2.20;;;-4.50;99.90;-4.20;97791.00;;;;5045578;28;20822;-83
2022/02/13 02:45:13;;;;;;;3.80;2.47;;;-4.40;99.90;-4.60;97789.00;;;;5045200;28;20456;-81
2022/02/13 02:47:43;;;;;;;1.83;1.67;;;-4.40;99.90;-5.00;97779.00;;;;5042519;28;20458;-85
2022/02/13 02:50:14;;;;;;;2.00;1.90;;;-3.90;99.90;-5.00;97771.00;;;;5048237;28;20465;-82
2022/02/13 02:52:43;;;;;;;2.17;2.07;;;-4.50;99.90;-4.80;97776.00;;;;5044614;28;20443;-86
2022/02/13 02:55:12;;;;;;;3.60;2.73;;;-4.60;99.90;-4.60;97766.00;;;;5044533;28;20455;-85
2022/02/13 02:57:42;;;;;;;2.90;2.70;;;-3.10;99.90;-4.60;97766.00;;;;5041975;28;20488;-83
2022/02/13 03:00:13;;;;;;;2.37;2.17;;;-4.50;99.90;-5.00;97766.00;;;;5051257;28;20436;-81
2022/02/13 03:02:42;;;;;;;2.40;2.10;;;-4.50;99.90;-5.40;97759.00;;;;5057771;28;20438;-84
2022/02/13 03:05:11;;;;;;;5.90;2.27;;;-4.30;99.90;-5.20;97767.00;;;;5050808;28;20487;-83
2022/02/13 03:07:40;;;;;;;2.43;2.03;;;-4.00;99.90;-5.10;97781.00;;;;5048650;28;20600;-84
2022/02/13 03:10:10;;;;;;;3.00;2.50;;;-4.80;99.90;-5.10;97785.00;;;;5044123;28;20447;-86
2022/02/13 03:12:38;;;;;;;2.83;2.43;;;-4.80;99.90;-5.20;97777.00;;;;5039276;28;20490;-86
2022/02/13 03:15:09;;;;;;;2.60;2.23;;;-4.30;99.90;-4.90;97759.00;;;;5040956;28;20539;-86
2022/02/13 03:17:38;;;;;;;3.47;3.13;;;-4.80;99.90;-4.70;97772.00;;;;5049542;28;20461;-85
2022/02/13 03:20:09;;;;;;;2.90;2.30;;;-4.60;99.90;-4.90;97773.00;;;;5041372;28;20998;-84
2022/02/13 03:22:38;;;;;;;2.43;2.23;;;-4.70;99.90;-4.90;97769.00;;;;5055681;28;20761;-84
2022/02/13 03:25:08;;;;;;;1.87;1.77;;;-2.80;99.90;-5.10;97772.00;;;;5051293;28;20553;-83
2022/02/13 03:27:37;;;;;;;4.93;2.10;;;-4.80;99.90;-5.10;97771.00;;;;5048958;28;20475;-82
2022/02/13 03:30:09;;;;;;;1.40;1.30;;;-4.80;99.90;-5.30;97768.00;;;;5044610;28;20439;-84
2022/02/13 03:32:38;;;;;;;1.43;1.33;;;-4.80;99.90;-5.60;97780.00;;;;5047361;28;20465;-83
2022/02/13 03:35:07;;;;;;;3.83;2.67;;;-4.90;99.90;-5.20;97776.00;;;;5037101;28;20484;-85
2022/02/13 03:37:37;;;;;;;2.10;1.90;;;-4.90;99.90;-4.90;97774.00;;;;5038429;28;20442;-87
2022/02/13 03:40:08;;;;;;;4.17;3.03;;;-4.40;99.90;-4.70;97769.00;;;;5033664;28;20539;-88
2022/02/13 03:42:37;;;;;;;2.87;2.63;;;-4.80;99.90;-4.60;97781.00;;;;5049384;28;20610;-87
2022/02/13 03:45:08;;;;;;;2.57;2.37;;;-4.70;99.90;-4.60;97773.00;;;;5046544;28;20520;-88
2022/02/13 03:47:39;;;;;;;6.63;2.80;;;-4.70;99.90;-5.00;97769.00;;;;5047784;28;20562;-85
2022/02/13 03:50:10;;;;;;;2.80;2.47;;;-4.70;99.90;-5.20;97768.00;;;;5048152;28;20475;-83
2022/02/13 03:52:39;;;;;;;2.27;2.07;;;-4.90;99.90;-5.80;97766.00;;;;5042252;28;20454;-87
2022/02/13 03:55:11;;;;;;;4.07;3.13;;;-4.70;99.90;-5.40;97778.00;;;;5043580;28;20469;-84
2022/02/13 03:57:40;;;;;;;2.70;2.50;;;-5.00;99.90;-5.00;97768.00;;;;5043319;28;20444;-86
2022/02/13 04:00:13;;;;;;;3.80;2.73;;;-5.00;99.90;-4.80;97760.00;;;;5045447;28;20964;-85
2022/02/13 04:02:43;;;;;;;2.63;2.43;;;-4.90;99.90;-4.80;97771.00;;;;5042388;28;20439;-85
2022/02/13 04:05:12;;;;;;;2.40;2.20;;;-4.40;99.90;-5.30;97761.00;;;;5048418;28;20566;-82
2022/02/13 04:07:42;;;;;;;2.83;2.53;;;-4.90;99.90;-5.60;97760.00;;;;5046731;28;20478;-87
2022/02/13 04:10:13;;;;;;;4.03;2.57;;;-5.00;99.90;-5.30;97765.00;;;;5045365;28;20493;-83
2022/02/13 04:12:42;;;;;;;3.50;3.20;;;-5.00;99.90;-5.10;97775.00;;;;5041784;28;20467;-87
2022/02/13 04:15:13;;;;;;;4.83;2.13;;;-5.00;99.90;-4.90;97756.00;;;;5039187;28;20443;-83
2022/02/13 04:17:42;;;;;;;5.70;5.03;;;-4.90;99.90;-5.10;97770.00;;;;5047886;28;20435;-83
2022/02/13 04:20:12;;;;;;;2.90;2.20;;;-4.90;99.90;-5.60;97751.00;;;;5039572;28;20443;-82
2022/02/13 04:22:41;;;;;;;1.77;1.67;;;-5.10;99.90;-5.70;97742.00;;;;5050436;28;20475;-84
2022/02/13 04:25:10;;;;;;;3.17;2.60;;;-4.60;99.90;-5.30;97740.00;;;;5048014;28;20494;-82
2022/02/13 04:27:39;;;;;;;3.53;2.47;;;-5.10;99.90;-5.00;97757.00;;;;5045234;28;20533;-85
2022/02/13 04:30:10;;;;;;;2.50;2.30;;;-5.10;99.90;-5.00;97749.00;;;;5040544;28;20447;-86
2022/02/13 04:32:40;;;;;;;3.07;2.77;;;-5.10;99.90;-5.20;97743.00;;;;5040625;28;20447;-85
2022/02/13 04:35:09;;;;;;;2.57;2.37;;;-5.00;99.90;-5.00;97743.00;;;;5043366;28;20472;-85
2022/02/13 04:37:38;;;;;;;10.33;2.57;;;-5.00;99.90;-4.90;97750.00;;;;5045205;28;20821;-86
2022/02/13 04:40:09;;;;;;;3.33;2.30;;;-5.00;99.90;-5.10;97750.00;;;;5048930;28;20482;-84
2022/02/13 04:42:38;;;;;;;3.03;2.57;;;-5.00;99.90;-5.30;97742.00;;;;5045450;28;20433;-84
2022/02/13 04:45:08;;;;;;;2.43;2.23;;;-4.40;99.90;-5.40;97739.00;;;;5043546;28;20465;-85
2022/02/13 04:47:36;;;;;;;4.70;2.43;;;-5.10;99.90;-5.30;97742.00;;;;5046507;28;20529;-85
2022/02/13 04:50:08;;;;;;;2.93;2.33;;;-5.00;99.90;-5.20;97749.00;;;;5045152;28;20439;-85
2022/02/13 04:52:37;;;;;;;8.17;2.37;;;-5.10;99.90;-5.30;97733.00;;;;5047815;28;20522;-83
2022/02/13 04:55:09;;;;;;;3.03;2.70;;;-4.20;99.90;-5.40;97734.00;;;;5048542;28;20473;-86
2022/02/13 04:57:38;;;;;;;1.93;1.70;;;-5.20;99.90;-5.50;97734.00;;;;5043890;28;20510;-82
2022/02/13 05:00:09;;;;;;;2.33;2.23;;;-5.30;99.90;-5.40;97735.00;;;;5044379;28;20530;-82
2022/02/13 05:02:38;;;;;;;2.77;2.57;;;-5.20;99.90;-5.20;97734.00;;;;5049270;28;20449;-85
2022/02/13 05:05:27;;;;;;;2.10;1.90;;;-4.50;99.90;-5.50;97734.00;;;;5039498;28;20457;-85
2022/02/13 05:07:55;;;;;;;2.60;2.13;;;-4.70;99.90;-5.50;97730.00;;;;5050869;28;20550;-86
2022/02/13 05:10:24;;;;;;;2.33;2.00;;;-5.20;99.90;-5.40;97726.00;;;;5050518;28;20431;-86
2022/02/13 05:12:53;;;;;;;3.17;2.57;;;-5.20;99.90;-5.20;97737.00;;;;5036525;28;20450;-84
2022/02/13 05:15:22;;;;;;;6.40;2.93;;;-5.20;99.90;-5.10;97734.00;;;;5050609;28;20550;-86
2022/02/13 05:17:51;;;;;;;1.83;1.70;;;-5.10;99.90;-5.20;97724.00;;;;5048322;28;20668;-86
2022/02/13 05:20:19;;;;;;;3.17;1.97;;;-4.60;99.90;-5.70;97726.00;;;;5045121;28;20457;-87
2022/02/13 05:22:50;;;;;;;1.63;1.53;;;-4.20;99.90;-6.20;97719.00;;;;5048629;28;20443;-84
2022/02/13 05:25:19;;;;;;;2.07;1.97;;;-5.30;99.90;-5.80;97724.00;;;;5051369;28;20513;-85
2022/02/13 05:27:48;;;;;;;1.80;1.70;;;-5.40;99.90;-6.10;97709.00;;;;5052250;28;20520;-86
2022/02/13 05:30:16;;;;;;;2.50;2.30;;;-4.10;99.90;-6.00;97709.00;;;;5050355;28;20434;-85
2022/02/13 05:32:45;;;;;;;2.37;2.13;;;-5.00;99.90;-6.00;97718.00;;;;5049085;28;20456;-82
2022/02/13 05:35:14;;;;;;;2.67;2.17;;;-5.50;99.90;-6.00;97727.00;;;;5050654;28;20479;-85
2022/02/13 05:37:43;;;;;;;5.27;2.57;;;-4.30;99.90;-5.70;97720.00;;;;5051329;28;20474;-87
2022/02/13 05:40:13;;;;;;;1.87;1.77;;;-4.40;99.90;-5.50;97728.00;;;;5051757;28;20526;-84
2022/02/13 05:42:42;;;;;;;2.30;1.83;;;-5.50;99.90;-5.40;97722.00;;;;5048842;28;20448;-88
2022/02/13 05:45:11;;;;;;;4.53;3.20;;;-4.30;99.90;-5.20;97719.00;;;;5052224;28;20451;-84
2022/02/13 05:47:41;;;;;;;6.10;3.67;;;-5.40;99.90;-5.40;97724.00;;;;5051512;28;20518;-86
2022/02/13 05:50:11;;;;;;;6.23;3.13;;;-5.10;99.90;-5.50;97728.00;;;;5052308;28;20443;-85
2022/02/13 05:52:40;;;;;;;2.53;2.03;;;-5.40;99.90;-6.10;97718.00;;;;5051150;28;20534;-87
2022/02/13 05:55:12;;;;;;;0.87;0.87;;;-5.50;99.90;-6.30;97713.00;;;;5052018;28;20467;-83
2022/02/13 05:57:44;;;;;;;4.00;2.90;;;-4.90;99.90;-6.20;97716.00;;;;5053066;28;20430;-87
2022/02/13 06:00:15;;;;;;;1.80;1.70;;;-5.20;99.90;-6.10;97710.00;;;;5040110;28;20587;-83
2022/02/13 06:02:45;;;;;;;4.37;2.87;;;-5.70;99.90;-5.70;97732.00;;;;5052668;28;20435;-84
2022/02/13 06:05:32;;;;;;;2.53;2.33;;;-5.30;99.90;-5.60;97727.00;;;;5051708;28;20462;-85
2022/02/13 06:08:01;;;;;;;2.47;2.27;;;-5.70;99.90;-5.60;97729.00;;;;5051426;28;20517;-85
2022/02/13 06:10:31;;;;;;;4.73;2.77;;;-5.50;99.90;-5.90;97723.00;;;;5052894;28;20462;-85
2022/02/13 06:13:00;;;;;;;8.00;5.10;;;-4.90;99.90;-6.10;97725.00;;;;5052232;28;20419;-84
2022/02/13 06:15:28;;;;;;;8.10;4.53;;;-4.50;99.90;-6.10;97726.00;;;;5055157;28;20513;-83
2022/02/13 06:17:57;;;;;;;2.40;2.20;;;-4.80;99.90;-6.00;97737.00;;;;5055917;28;20471;-87
2022/02/13 06:20:26;;;;;;;2.37;2.23;;;-5.40;99.90;-5.80;97736.00;;;;5044913;28;20458;-85
2022/02/13 06:22:55;;;;;;;3.07;2.87;;;-5.60;99.90;-5.90;97733.00;;;;5051689;28;20944;-85
2022/02/13 06:25:25;;;;;;;5.67;3.07;;;-4.50;99.90;-5.90;97745.00;;;;5045797;28;20479;-81
2022/02/13 06:27:56;;;;;;;1.98;1.77;;;-4.00;99.90;-6.30;97730.00;;;;5050897;28;20501;-84
2022/02/13 06:30:25;;;;;;;1.83;1.73;;;-7.40;99.90;-6.30;97730.00;;;;5049444;28;20982;-83
2022/02/13 06:33:14;;;;;;;3.60;2.80;;;-5.70;99.90;-6.20;97743.00;;;;5045942;28;20212;-86
2022/02/13 06:35:43;;;;;;;1.67;1.58;;;-5.10;99.90;-6.30;97726.00;;;;5049247;28;20459;-83
2022/02/13 06:38:13;;;;;;;2.38;2.10;;;-4.90;99.90;-6.10;97738.00;;;;5049255;28;20258;-86
2022/02/13 06:40:43;;;;;;;2.03;1.93;;;-5.70;99.90;-6.10;97735.00;;;;5049278;28;20204;-84
2022/02/13 06:43:13;;;;;;;2.03;1.77;;;-5.60;99.90;-6.40;97741.00;;;;5048492;28;20485;-83
2022/02/13 06:45:42;;;;;;;3.97;2.87;;;-5.70;99.90;-6.20;97729.00;;;;5048828;28;20450;-83
2022/02/13 06:48:11;;;;;;;4.10;2.67;;;-5.50;99.90;-6.20;97740.00;;;;5054684;28;20502;-83
2022/02/13 06:50:40;;;;;;;2.93;2.43;;;-4.80;99.90;-6.00;97735.00;;;;5053718;28;20461;-83
2022/02/13 06:53:09;;;;;;;1.58;1.48;;;-5.00;99.90;-6.00;97739.00;;;;5048387;28;20447;-83
2022/02/13 06:55:38;;;;;;;2.80;1.90;;;-5.60;99.90;-5.90;97744.00;;;;5048369;28;20204;-84
2022/02/13 06:58:07;;;;;;;0.60;0.60;;;-5.50;99.90;-5.90;97746.00;;;;5049898;28;20435;-83
2022/02/13 07:00:40;;;;;;;2.30;2.00;;;-5.40;99.90;-5.90;97749.00;;;;5051219;28;20522;-83
2022/02/13 07:03:09;;;;;;;2.60;1.80;;;-5.40;99.90;-5.90;97748.00;;;;5050928;28;20522;-85
2022/02/13 07:05:38;;;;;;;1.90;1.80;;;-5.30;99.90;-6.00;97737.00;;;;5047728;28;20549;-82
2022/02/13 07:08:07;;;;;;;2.30;1.87;;;-4.80;99.90;-5.90;97738.00;;;;5045872;28;20605;-83
2022/02/13 07:10:37;;;;;;;1.13;1.13;;;-5.30;99.90;-5.80;97729.00;;;;5044536;28;20443;-81
2022/02/13 07:13:06;;;;;;;4.07;2.63;;;-5.30;99.90;-5.50;97725.00;;;;5042643;28;20871;-86
2022/02/13 07:15:37;;;;;;;4.57;2.90;;;-5.10;99.90;-5.10;97730.00;;;;5038708;28;20463;-85
2022/02/13 07:18:07;;;;;;;3.47;2.33;;;-5.00;99.90;-5.30;97724.00;;;;5042225;28;20571;-84
2022/02/13 07:20:36;;;;;;;9.90;2.73;;;-4.70;99.90;-4.90;97716.00;;;;5036739;28;20462;-82
2022/02/13 07:23:05;;;;;;;7.73;3.27;;;-4.90;99.90;-4.90;97715.00;;;;5032786;28;20448;-83
2022/02/13 07:25:34;;;;;;;3.33;3.00;;;-4.50;99.90;-4.70;97718.00;;;;5035775;28;21406;-83
2022/02/13 07:28:58;;;;;;;2.07;1.97;;;-4.20;99.90;-5.00;97715.00;;;;5038321;28;20472;-85
2022/02/13 07:30:55;;;;;;;4.03;2.63;;;-4.70;99.90;-4.80;97717.00;;;;5036810;28;20458;-86
2022/02/13 07:33:24;;;;;;;3.80;3.60;;;-4.50;99.90;-5.20;97731.00;;;;5036014;28;20454;-87
2022/02/13 07:35:53;;;;;;;3.93;3.53;;;-4.60;99.90;-4.60;97721.00;;;;5034731;28;20610;-82
2022/02/13 07:38:22;;;;;;;2.10;2.00;;;-4.00;99.90;-5.00;97719.00;;;;5032971;28;20448;-84
2022/02/13 07:40:51;;;;;;;4.07;2.90;;;-3.00;99.90;-4.50;97726.00;;;;5041757;28;20554;-84
2022/02/13 07:43:19;;;;;;;3.17;2.13;;;-4.50;99.90;-4.90;97724.00;;;;5042844;28;20463;-83
2022/02/13 07:45:51;;;;;;;2.37;1.90;;;-4.00;99.90;-4.70;97730.00;;;;5035518;28;20447;-84
2022/02/13 07:48:21;;;;;;;4.63;3.27;;;-4.40;99.90;-4.70;97719.00;;;;5034372;28;20476;-82
2022/02/13 07:50:50;;;;;;;4.87;4.43;;;-4.40;99.90;-4.20;97726.00;;;;5039696;28;20455;-83
2022/02/13 07:53:19;;;;;;;10.13;3.00;;;-4.30;99.90;-4.20;97720.00;;;;5041864;28;20530;-85
2022/02/13 07:55:48;;;;;;;2.57;2.37;;;-3.00;99.90;-4.30;97721.00;;;;5043232;28;20463;-83
2022/02/13 07:58:17;;;;;;;3.27;2.90;;;-4.10;99.90;-4.30;97714.00;;;;5036481;28;20455;-82
2022/02/13 08:00:46;;;;;;;4.37;3.10;;;-4.00;99.90;-4.10;97725.00;;;;5035046;28;20968;-85
2022/02/13 08:03:15;;;;;;;6.33;3.47;;;-3.90;99.90;-3.50;97730.00;;;;5029965;28;20503;-85
2022/02/13 08:05:46;;;;;;;2.80;2.53;;;-3.80;99.90;-3.70;97713.00;;;;5039616;28;20495;-85
2022/02/13 08:08:15;;;;;;;18.90;11.07;;;-3.50;99.90;-3.60;97702.00;;;;5043827;28;20455;-83
2022/02/13 08:10:44;;;;;;;17.97;11.70;;;-3.40;99.90;-3.40;97709.00;;;;5040719;28;20463;-84
2022/02/13 08:13:13;;;;;;;33.70;19.20;;;-1.20;99.90;-3.20;97704.00;;;;5038042;28;20489;-84
2022/02/13 08:15:42;;;;;;;25.07;11.67;;;-1.70;99.90;-3.20;97712.00;;;;5035294;28;20447;-86
2022/02/13 08:18:14;;;;;;;161.10;64.87;;;-1.10;99.90;-3.40;97716.00;;;;5035656;28;20458;-84
2022/02/13 08:20:46;;;;;;;108.80;52.50;;;-3.10;99.90;-3.20;97718.00;;;;5042019;28;20454;-85
2022/02/13 08:23:16;;;;;;;89.07;41.97;;;-3.10;99.90;-2.60;97722.00;;;;5040167;28;20455;-86
2022/02/13 08:25:45;;;;;;;38.70;22.47;;;-1.00;99.90;-2.60;97715.00;;;;5038927;28;20899;-86
2022/02/13 08:28:22;;;;;;;15.17;10.23;;;-1.80;99.90;-2.30;97713.00;;;;5044338;28;20478;-86
2022/02/13 08:30:53;;;;;;;4.63;4.20;;;-1.80;99.90;-2.20;97717.00;;;;5049566;28;20470;-80
2022/02/13 08:33:22;;;;;;;3.70;3.27;;;-2.50;99.90;-2.20;97707.00;;;;5056057;28;20469;-80
2022/02/13 08:36:11;;;;;;;14.50;6.97;;;-1.30;99.90;-1.90;97711.00;;;;5049222;28;20576;-81
2022/02/13 08:38:40;;;;;;;4.67;3.77;;;-2.40;99.90;-1.80;97714.00;;;;5052441;28;20494;-80
2022/02/13 08:41:09;;;;;;;4.90;3.57;;;-0.90;99.90;-1.40;97714.00;;;;5047908;28;20434;-81
2022/02/13 08:43:40;;;;;;;6.87;4.10;;;-1.40;99.90;-0.90;97720.00;;;;5047340;28;20447;-82
2022/02/13 08:46:09;;;;;;;7.20;5.33;;;-1.20;99.90;-1.10;97717.00;;;;5048188;28;20990;-80
2022/02/13 08:48:38;;;;;;;14.00;5.63;;;-1.30;99.90;-1.00;97711.00;;;;5045774;28;20475;-81
2022/02/13 08:51:07;;;;;;;6.33;5.57;;;-1.40;99.90;-0.80;97701.00;;;;5043678;28;20439;-81
2022/02/13 08:53:38;;;;;;;7.90;5.07;;;-1.20;99.90;-0.50;97703.00;;;;5041480;28;20467;-81
2022/02/13 08:56:07;;;;;;;6.27;4.67;;;-1.10;99.90;-0.40;97708.00;;;;5046370;28;20431;-81
2022/02/13 08:58:36;;;;;;;5.03;4.60;;;-0.90;99.90;-0.20;97706.00;;;;5040605;28;20497;-83
2022/02/13 09:01:05;;;;;;;7.33;4.03;;;-0.80;99.90;0.30;97707.00;;;;5044076;28;20435;-83
2022/02/13 09:03:34;;;;;;;4.13;3.57;;;-0.60;99.90;0.20;97704.00;;;;5042326;28;20620;-83
2022/02/13 09:06:05;;;;;;;5.03;4.30;;;-0.40;99.90;0.40;97699.00;;;;5044593;28;20435;-82
2022/02/13 09:08:34;;;;;;;4.33;3.50;;;-0.20;99.90;0.40;97698.00;;;;5047862;28;20532;-81
2022/02/13 09:11:05;;;;;;;7.40;4.57;;;0.20;99.90;0.70;97699.00;;;;5045120;28;20470;-82
2022/02/13 09:13:34;;;;;;;7.37;3.70;;;0.20;99.90;1.40;97691.00;;;;5043207;28;20455;-83
2022/02/13 09:16:03;;;;;;;7.13;4.40;;;0.30;99.90;1.80;97697.00;;;;5039618;28;20969;-82
2022/02/13 09:18:32;;;;;;;6.37;4.17;;;0.60;99.90;2.10;97706.00;;;;5043202;28;20458;-81
2022/02/13 09:21:02;;;;;;;8.37;3.87;;;1.00;99.90;2.40;97695.00;;;;5044750;28;20471;-81
2022/02/13 09:23:31;;;;;;;5.50;4.23;;;1.20;99.90;2.70;97693.00;;;;5034353;28;20454;-82
2022/02/13 09:25:59;;;;;;;5.50;3.53;;;1.40;99.90;2.80;97701.00;;;;5045383;28;20452;-81
2022/02/13 09:28:30;;;;;;;7.97;3.53;;;1.60;99.90;3.10;97688.00;;;;5054311;28;20427;-81
2022/02/13 09:31:17;;;;;;;5.00;3.60;;;1.90;99.90;3.40;97692.00;;;;5062359;28;20427;-80
2022/02/13 09:33:46;;;;;;;6.90;4.23;;;2.10;99.90;3.60;97698.00;;;;5050631;28;20474;-83
2022/02/13 09:36:15;;;;;;;7.10;4.07;;;2.30;99.90;3.80;97698.00;;;;5044573;28;20440;-82
2022/02/13 09:38:44;;;;;;;9.50;4.40;;;2.50;99.90;4.00;97695.00;;;;5046189;28;20547;-83
2022/02/13 09:41:13;;;;;;;5.80;4.40;;;2.70;99.90;4.10;97693.00;;;;5047893;28;20450;-80
2022/02/13 09:43:44;;;;;;;3.80;3.27;;;2.90;99.90;4.20;97698.00;;;;5051737;28;20451;-81
2022/02/13 09:46:15;;;;;;;5.77;4.03;;;3.10;99.90;4.60;97691.00;;;;5052000;28;20446;-80
2022/02/13 09:48:44;;;;;;;6.90;4.13;;;3.20;99.90;4.80;97691.00;;;;5048605;28;20481;-78
2022/02/13 09:51:13;;;;;;;4.63;3.37;;;3.40;99.90;4.90;97688.00;;;;5049610;28;20573;-81
2022/02/13 09:53:42;;;;;;;9.27;5.13;;;3.60;99.90;5.20;97684.00;;;;5039506;28;21035;-83
2022/02/13 09:56:11;;;;;;;4.00;3.50;;;3.80;99.90;5.30;97687.00;;;;5053836;28;20518;-83
2022/02/13 09:58:40;;;;;;;6.13;3.37;;;4.00;99.90;5.60;97690.00;;;;5053311;28;20480;-81
2022/02/13 10:01:11;;;;;;;7.40;3.87;;;4.20;99.90;5.70;97686.00;;;;5052797;28;20214;-83
2022/02/13 10:03:42;;;;;;;4.90;3.63;;;4.40;99.90;5.70;97676.00;;;;5045752;28;20252;-81
2022/02/13 10:06:23;;;;;;;8.30;3.97;;;4.50;99.40;6.00;97684.00;;;;5050274;28;20442;-81
2022/02/13 10:08:54;;;;;;;3.63;2.80;;;4.70;97.90;5.50;97669.00;;;;5050467;28;20206;-81
2022/02/13 10:11:26;;;;;;;4.57;3.03;;;4.80;95.10;5.90;97674.00;;;;5049848;28;20256;-81
2022/02/13 10:13:57;;;;;;;3.60;2.97;;;4.90;94.10;6.30;97669.00;;;;5051317;28;20303;-83
2022/02/13 10:16:30;;;;;;;9.33;3.50;;;5.00;93.70;6.60;97670.00;;;;5049126;28;20204;-80
2022/02/13 10:19:05;;;;;;;7.77;2.60;;;5.10;93.70;6.60;97664.00;;;;5053092;28;20211;-81
2022/02/13 10:21:42;;;;;;;7.20;3.70;;;5.30;93.10;7.10;97669.00;;;;5044114;28;20212;-80
2022/02/13 10:24:25;;;;;;;3.43;2.67;;;5.40;92.10;7.10;97655.00;;;;5047232;28;20224;-81
2022/02/13 10:27:11;;;;;;;3.77;2.47;;;4.40;89.80;7.30;97647.00;;;;5046029;28;20252;-80
2022/02/13 10:29:43;;;;;;;3.67;2.73;;;5.80;89.70;7.30;97638.00;;;;5043993;28;20213;-82
2022/02/13 10:32:29;;;;;;;2.53;2.13;;;5.90;85.10;7.40;97636.00;;;;5043849;28;20724;-79
2022/02/13 10:35:05;;;;;;;10.83;3.30;;;6.00;82.10;8.10;97645.00;;;;5037373;28;20382;-79
2022/02/13 10:37:46;;;;;;;8.27;2.87;;;6.30;83.30;8.10;97638.00;;;;5038441;28;21177;-81
2022/02/13 10:40:35;;;;;;;2.40;2.20;;;6.50;81.50;7.20;97620.00;;;;5042296;28;20326;-81
2022/02/13 10:43:09;;;;;;;2.17;1.97;;;6.60;75.20;7.20;97610.00;;;;5044529;28;20252;-80
2022/02/13 10:45:41;;;;;;;4.93;2.70;;;6.70;73.90;8.50;97613.00;;;;5041178;28;20643;-79
2022/02/13 10:48:13;;;;;;;4.20;2.57;;;6.90;74.70;8.10;97612.00;;;;5042228;28;20223;-79
2022/02/13 10:51:01;;;;;;;5.10;2.97;;;7.30;69.80;8.60;97600.00;;;;5040187;28;20287;-79
2022/02/13 10:53:29;;;;;;;7.40;3.30;;;7.70;69.40;9.40;97601.00;;;;5039986;28;20228;-78
2022/02/13 10:56:17;;;;;;;3.53;3.20;;;8.10;69.70;9.50;97589.00;;;;5039829;28;20238;-79
2022/02/13 10:58:46;;;;;;;3.53;2.20;;;8.50;65.60;10.40;97592.00;;;;5041588;28;20201;-80
2022/02/13 11:01:17;;;;;;;2.60;2.40;;;8.80;67.30;10.70;97579.00;;;;5043809;28;21724;-79
2022/02/13 11:03:48;;;;;;;6.33;2.47;;;9.30;66.20;11.50;97578.00;;;;5041966;28;20274;-80
2022/02/13 11:06:17;;;;;;;3.57;2.47;;;9.70;65.60;11.70;97567.00;;;;5041446;28;20994;-79
2022/02/13 11:08:55;;;;;;;2.67;2.30;;;10.20;63.00;11.30;97559.00;;;;5041985;28;20206;-81
2022/02/13 11:11:40;;;;;;;3.97;3.57;;;10.70;58.80;11.40;97553.00;;;;5037452;28;20326;-79